KSPW/SPW METAR and TAF weather

Enter ICAO airport designator
Station Type Date Time Source
KSPW METAR 2023/06/01 07:53 UTC NOAA

KSPW 010753Z AUTO 17006KT 10SM CLR 19/15 A2992 RMK AO2 SLP122 T01940150


Station Type Date Time Source
KSPW Decoded METAR 2023/06/01 07:53 UTC NOAA

SPENCER MUNICIPAL AIRPORT, IA, United States (KSPW) 43-10N 95-13W 403M
Jun 01, 2023 - 03:53 AM EDT / 2023.06.01 0753 UTC
Wind: from the S (170 degrees) at 7 MPH (6 KT):0
Visibility: 10 mile(s):0
Sky conditions: clear
Temperature: 66.9 F (19.4 C)
Dew Point: 59.0 F (15.0 C)
Relative Humidity: 75%
Pressure (altimeter): 29.92 in. Hg (1013 hPa)
ob: KSPW 010753Z AUTO 17006KT 10SM CLR 19/15 A2992 RMK AO2 SLP122 T01940150
cycle: 8

Station Type Date Time Source
KSPW TAF UTC NOAA

Error!

Example: see airport list